Time;durP1;ratioP1;P1;durP2;ratioP2;P2;SDS_P1;SDS_P2;PMS_P1;PMS_P2;Temp;Humidity;BMP_temperature;BMP_pressure;BME280_temperature;BME280_humidity;BME280_pressure;Samples;Min_cycle;Max_cycle;Signal;HPM_P1;HPM_P2
2022/04/26 03:36:22;;;;;;;44.73;39.50;;;12.60;98.60;;;;;;5070022;28;20463;-66
2022/04/26 03:38:48;;;;;;;44.23;37.60;;;12.60;98.70;;;;;;5104399;28;20839;-67
2022/04/26 03:41:15;;;;;;;38.13;34.13;;;12.60;98.50;;;;;;5103594;28;20486;-66
2022/04/26 03:43:42;;;;;;;44.37;39.53;;;12.50;98.20;;;;;;5103701;28;20455;-66
2022/04/26 03:46:09;;;;;;;41.70;36.03;;;12.50;98.10;;;;;;5106456;28;20522;-66
2022/04/26 03:48:36;;;;;;;38.90;33.00;;;12.50;98.30;;;;;;5106208;28;20448;-68
2022/04/26 03:51:04;;;;;;;38.33;34.27;;;12.50;98.30;;;;;;5103860;28;20468;-66
2022/04/26 03:53:32;;;;;;;34.57;30.87;;;12.50;98.30;;;;;;5106651;28;20435;-67
2022/04/26 03:55:59;;;;;;;37.30;31.20;;;12.50;98.20;;;;;;5107923;28;20793;-67
2022/04/26 03:58:26;;;;;;;38.57;32.17;;;12.50;98.00;;;;;;5109389;28;20440;-67
2022/04/26 04:00:53;;;;;;;35.83;32.03;;;12.50;98.10;;;;;;5109526;28;20472;-69
2022/04/26 04:03:20;;;;;;;37.60;32.97;;;12.50;98.10;;;;;;5108294;28;20451;-69
2022/04/26 04:05:46;;;;;;;41.10;33.73;;;12.50;98.20;;;;;;5109255;28;20476;-69
2022/04/26 04:08:14;;;;;;;41.00;33.60;;;12.50;98.20;;;;;;5111047;28;20947;-70
2022/04/26 04:10:41;;;;;;;39.33;35.10;;;12.50;98.30;;;;;;5110743;28;20447;-68
2022/04/26 04:13:08;;;;;;;47.27;37.13;;;12.50;98.20;;;;;;5110980;28;20977;-68
2022/04/26 04:15:36;;;;;;;39.43;35.17;;;12.50;98.30;;;;;;5110580;28;20435;-68
2022/04/26 04:18:02;;;;;;;41.07;36.00;;;12.50;98.10;;;;;;5111419;28;20461;-68
2022/04/26 04:20:29;;;;;;;46.27;37.80;;;12.40;98.10;;;;;;5111274;28;20444;-68
2022/04/26 04:22:56;;;;;;;34.50;30.63;;;12.40;98.10;;;;;;5110813;28;20856;-70
2022/04/26 04:25:25;;;;;;;31.37;26.70;;;12.30;97.90;;;;;;5110779;28;20471;-69
2022/04/26 04:27:51;;;;;;;32.33;27.93;;;12.20;97.90;;;;;;5109729;28;20443;-69
2022/04/26 04:30:18;;;;;;;39.10;26.50;;;12.10;98.00;;;;;;5110514;28;20448;-70
2022/04/26 04:32:45;;;;;;;23.33;20.70;;;12.10;98.00;;;;;;5110440;28;20479;-69
2022/04/26 04:35:12;;;;;;;22.00;19.53;;;12.00;98.10;;;;;;5110399;28;20454;-68
2022/04/26 04:37:38;;;;;;;23.97;19.20;;;12.10;98.20;;;;;;5111551;28;20444;-68
2022/04/26 04:40:06;;;;;;;21.73;17.90;;;12.10;98.20;;;;;;5110891;28;20530;-70
2022/04/26 04:42:34;;;;;;;22.67;17.10;;;12.00;97.40;;;;;;5110774;28;20462;-69
2022/04/26 04:45:02;;;;;;;22.20;18.50;;;12.00;97.50;;;;;;5110740;28;20483;-69
2022/04/26 04:47:29;;;;;;;19.07;17.07;;;12.00;97.50;;;;;;5109281;28;20450;-69
2022/04/26 04:49:55;;;;;;;18.10;16.20;;;12.00;97.40;;;;;;5109994;28;20507;-69
2022/04/26 04:52:22;;;;;;;16.00;14.40;;;12.00;97.40;;;;;;5109126;28;20472;-69
2022/04/26 04:54:49;;;;;;;17.23;15.10;;;11.90;97.30;;;;;;5108749;28;20442;-68
2022/04/26 04:57:15;;;;;;;16.60;13.63;;;12.00;97.30;;;;;;5109723;28;20451;-68
2022/04/26 04:59:43;;;;;;;16.47;14.77;;;12.00;97.20;;;;;;5109488;28;20466;-69
2022/04/26 05:02:10;;;;;;;17.20;13.60;;;11.90;96.80;;;;;;5109587;28;20853;-69
2022/04/26 05:04:39;;;;;;;14.93;13.20;;;11.90;96.80;;;;;;5110320;28;20483;-68
2022/04/26 05:07:07;;;;;;;14.93;13.07;;;11.90;97.00;;;;;;5108672;28;20943;-68
2022/04/26 05:09:34;;;;;;;13.30;11.30;;;11.90;96.80;;;;;;5109323;28;20497;-68
2022/04/26 05:12:00;;;;;;;11.90;10.73;;;11.80;96.40;;;;;;5108718;28;20501;-68
2022/04/26 05:14:27;;;;;;;12.20;10.90;;;11.70;96.50;;;;;;5109149;28;20435;-68
2022/04/26 05:16:55;;;;;;;14.37;10.80;;;11.70;96.60;;;;;;5109354;28;20448;-67
2022/04/26 05:19:22;;;;;;;12.53;11.00;;;11.70;96.60;;;;;;5109293;28;20452;-69
2022/04/26 05:21:49;;;;;;;13.37;12.00;;;11.70;96.20;;;;;;5109463;28;20466;-69
2022/04/26 05:27:00;;;;;;;10.97;9.87;;;11.70;96.30;;;;;;5109239;28;20909;-67
2022/04/26 05:29:26;;;;;;;10.97;9.87;;;11.70;96.30;;;;;;5109027;28;20427;-67
2022/04/26 05:31:54;;;;;;;11.17;10.00;;;11.70;96.20;;;;;;5108489;28;20468;-68
2022/04/26 05:34:21;;;;;;;11.87;10.63;;;11.80;96.20;;;;;;5108580;28;20432;-67
2022/04/26 05:36:48;;;;;;;11.20;10.13;;;11.80;96.10;;;;;;5108681;28;20444;-67
2022/04/26 05:39:14;;;;;;;11.67;9.00;;;11.80;95.70;;;;;;5108353;28;20440;-67
2022/04/26 05:41:41;;;;;;;10.57;9.10;;;11.80;95.70;;;;;;5108112;28;20467;-68
2022/04/26 05:44:08;;;;;;;11.73;9.37;;;11.80;95.60;;;;;;5108045;28;20455;-68
2022/04/26 05:46:34;;;;;;;10.77;8.87;;;11.70;95.60;;;;;;5108160;28;20443;-68
2022/04/26 05:49:02;;;;;;;9.70;8.80;;;11.70;95.60;;;;;;5108043;28;20447;-69
2022/04/26 05:51:29;;;;;;;11.73;9.97;;;11.60;95.70;;;;;;5108628;28;20460;-69
2022/04/26 05:53:56;;;;;;;10.53;9.43;;;11.60;95.70;;;;;;5105455;28;20443;-68
2022/04/26 05:56:23;;;;;;;16.20;11.27;;;11.60;95.70;;;;;;5106657;28;20444;-71
2022/04/26 05:58:49;;;;;;;12.00;10.00;;;11.70;95.90;;;;;;5106724;28;20444;-69
2022/04/26 06:01:16;;;;;;;11.03;9.67;;;11.70;95.70;;;;;;5107613;28;20463;-68
2022/04/26 06:03:43;;;;;;;12.47;11.27;;;11.70;95.70;;;;;;5106714;28;20508;-67
2022/04/26 06:06:11;;;;;;;14.53;12.00;;;11.80;95.60;;;;;;5108060;28;20492;-67
2022/04/26 06:08:38;;;;;;;12.87;10.33;;;11.80;95.80;;;;;;5107741;28;20446;-68
2022/04/26 06:11:05;;;;;;;16.27;11.00;;;11.80;96.30;;;;;;5107481;28;20460;-68
2022/04/26 06:13:31;;;;;;;13.47;11.47;;;11.90;96.10;;;;;;5108014;28;20523;-67
2022/04/26 06:15:58;;;;;;;17.73;9.93;;;11.90;95.90;;;;;;5107953;28;20513;-69
2022/04/26 06:18:25;;;;;;;12.30;10.23;;;12.00;95.60;;;;;;5107956;28;20462;-67
2022/04/26 06:20:51;;;;;;;12.20;10.80;;;12.00;95.40;;;;;;5109129;28;20460;-67
2022/04/26 06:23:19;;;;;;;16.10;11.33;;;12.00;95.40;;;;;;5108673;28;20471;-69
2022/04/26 06:25:46;;;;;;;17.40;11.77;;;12.00;95.10;;;;;;5108411;28;20480;-67
2022/04/26 06:28:13;;;;;;;12.90;10.30;;;12.00;94.70;;;;;;5108858;28;20462;-68
2022/04/26 06:30:40;;;;;;;14.00;10.63;;;12.00;94.90;;;;;;5108353;28;20450;-69
2022/04/26 06:33:07;;;;;;;15.13;12.40;;;12.00;94.80;;;;;;5107561;28;20436;-67
2022/04/26 06:35:33;;;;;;;15.10;12.97;;;12.00;95.00;;;;;;5107647;28;20774;-68
2022/04/26 06:38:00;;;;;;;15.20;11.33;;;12.20;95.40;;;;;;5109261;28;20451;-68
2022/04/26 06:40:29;;;;;;;12.87;10.47;;;12.20;95.60;;;;;;5106633;28;20420;-68
2022/04/26 06:42:55;;;;;;;15.50;12.30;;;12.30;95.20;;;;;;5108029;28;20450;-67
2022/04/26 06:45:22;;;;;;;14.30;12.00;;;12.40;95.10;;;;;;5108379;28;20467;-68
2022/04/26 06:47:49;;;;;;;17.07;14.03;;;12.40;94.70;;;;;;5108630;28;20462;-67
2022/04/26 06:50:17;;;;;;;15.23;12.53;;;12.60;95.00;;;;;;5107922;28;20427;-69
2022/04/26 06:52:44;;;;;;;16.97;12.10;;;12.70;94.20;;;;;;5126597;28;20467;-68
2022/04/26 06:55:11;;;;;;;14.50;13.00;;;12.80;94.10;;;;;;5132578;28;20443;-67
2022/04/26 06:57:40;;;;;;;15.57;12.23;;;12.90;93.70;;;;;;5132195;28;20438;-67
2022/04/26 07:00:09;;;;;;;15.93;12.80;;;13.00;93.50;;;;;;5132253;28;20446;-68
2022/04/26 07:02:35;;;;;;;17.10;12.77;;;13.20;92.50;;;;;;5131845;28;20478;-68
2022/04/26 07:05:04;;;;;;;13.77;12.33;;;13.30;92.10;;;;;;5132196;28;20477;-67
2022/04/26 07:07:30;;;;;;;17.67;13.47;;;13.50;92.50;;;;;;5132959;28;20442;-69
2022/04/26 07:09:57;;;;;;;16.80;13.57;;;13.50;91.70;;;;;;5132790;28;20446;-67
2022/04/26 07:12:24;;;;;;;17.30;15.33;;;13.50;91.90;;;;;;5132487;28;20483;-68
2022/04/26 07:14:52;;;;;;;17.23;15.43;;;13.60;91.90;;;;;;5132472;28;20500;-68
2022/04/26 07:17:19;;;;;;;20.17;16.10;;;13.70;91.90;;;;;;5132616;28;20458;-68
2022/04/26 07:19:46;;;;;;;20.97;16.97;;;13.50;91.40;;;;;;5131975;28;20462;-68
2022/04/26 07:22:12;;;;;;;20.90;16.90;;;13.50;91.10;;;;;;5132363;28;20486;-67
2022/04/26 07:24:39;;;;;;;20.80;17.30;;;13.40;91.20;;;;;;5132602;28;20807;-67
2022/04/26 07:27:06;;;;;;;19.83;17.73;;;13.20;91.30;;;;;;5134376;28;20442;-68
2022/04/26 07:29:33;;;;;;;20.57;17.77;;;13.00;91.60;;;;;;5140054;28;20442;-67
2022/04/26 07:32:01;;;;;;;27.97;19.30;;;12.80;92.30;;;;;;5139115;28;20834;-67
2022/04/26 07:34:27;;;;;;;27.17;19.93;;;12.80;92.70;;;;;;5133692;28;20454;-68
2022/04/26 07:36:59;;;;;;;27.70;24.17;;;12.80;93.30;;;;;;5134114;28;20802;-69
2022/04/26 07:39:26;;;;;;;36.40;25.40;;;13.00;93.60;;;;;;5134564;28;20544;-69
2022/04/26 07:41:52;;;;;;;27.53;24.37;;;13.20;93.60;;;;;;5133381;28;20474;-69
2022/04/26 07:44:20;;;;;;;32.07;26.77;;;13.40;93.20;;;;;;5132003;28;20458;-68
2022/04/26 07:46:48;;;;;;;35.03;28.50;;;13.40;92.70;;;;;;5129526;28;20498;-68
2022/04/26 07:49:19;;;;;;;32.40;26.83;;;13.50;92.40;;;;;;5131624;28;20446;-68
2022/04/26 07:51:46;;;;;;;36.07;29.20;;;13.60;92.60;;;;;;5134565;28;20477;-68
2022/04/26 07:54:13;;;;;;;31.27;26.40;;;13.70;92.00;;;;;;5132663;28;20447;-67
2022/04/26 07:56:41;;;;;;;28.57;25.57;;;13.80;92.10;;;;;;5132412;28;20472;-67
2022/04/26 07:59:07;;;;;;;44.43;35.47;;;13.90;92.10;;;;;;5131785;28;20445;-67
2022/04/26 08:01:35;;;;;;;35.40;29.13;;;14.00;91.80;;;;;;5131888;28;20475;-69
2022/04/26 08:04:03;;;;;;;32.40;26.47;;;14.00;91.30;;;;;;5132035;28;20454;-67
2022/04/26 08:06:31;;;;;;;33.90;25.50;;;14.00;90.90;;;;;;5132104;28;20489;-68
2022/04/26 08:08:58;;;;;;;30.00;23.83;;;14.00;90.60;;;;;;5132831;28;20443;-68
2022/04/26 08:11:28;;;;;;;28.77;25.70;;;14.00;90.50;;;;;;5131995;28;20462;-69
2022/04/26 08:13:55;;;;;;;27.73;24.27;;;14.00;90.60;;;;;;5132129;27;20541;-69
2022/04/26 08:16:22;;;;;;;30.90;27.57;;;14.00;90.70;;;;;;5131443;28;20802;-69
2022/04/26 08:18:49;;;;;;;31.37;27.57;;;14.00;90.50;;;;;;5131595;28;20447;-67
2022/04/26 08:21:16;;;;;;;30.67;27.67;;;14.00;90.80;;;;;;5131592;28;20466;-68
2022/04/26 08:29:14;;;;;;;27.63;24.80;;;13.90;90.50;;;;;;5132269;28;20475;-67
2022/04/26 08:31:41;;;;;;;27.90;25.00;;;13.80;90.50;;;;;;5131401;28;21000;-69
2022/04/26 08:34:08;;;;;;;27.70;24.90;;;13.80;90.60;;;;;;5131630;28;20443;-69
2022/04/26 08:36:35;;;;;;;26.77;23.97;;;13.80;90.60;;;;;;5132216;28;20446;-67
2022/04/26 08:39:04;;;;;;;26.37;23.47;;;13.90;90.80;;;;;;5131526;28;20443;-68
2022/04/26 08:41:31;;;;;;;28.43;25.53;;;13.90;90.70;;;;;;5131798;28;20535;-67
2022/04/26 08:43:58;;;;;;;29.87;26.90;;;13.90;90.80;;;;;;5131484;28;20459;-68
2022/04/26 08:50:59;;;;;;;27.30;24.50;;;14.00;90.80;;;;;;5131488;28;20497;-68
2022/04/26 08:52:01;;;;;;;29.60;26.70;;;14.00;90.60;;;;;;5131225;28;20468;-68
2022/04/26 08:54:31;;;;;;;26.40;23.90;;;14.00;91.00;;;;;;5131623;28;20435;-68
2022/04/26 08:56:58;;;;;;;25.37;22.73;;;13.90;91.10;;;;;;5131199;28;20439;-68
2022/04/26 08:59:24;;;;;;;27.93;24.70;;;13.80;91.40;;;;;;5130588;28;20457;-68
2022/04/26 09:01:52;;;;;;;30.30;25.33;;;13.80;91.30;;;;;;5129027;28;21005;-68
2022/04/26 09:04:18;;;;;;;28.60;25.77;;;13.90;91.50;;;;;;5129067;28;20450;-67
2022/04/26 09:06:45;;;;;;;27.53;24.80;;;13.90;91.80;;;;;;5129353;28;20512;-67
2022/04/26 09:09:14;;;;;;;23.67;21.23;;;14.00;92.10;;;;;;5129283;28;20477;-68
2022/04/26 09:11:43;;;;;;;24.03;21.70;;;14.20;91.90;;;;;;5129056;28;20463;-68
2022/04/26 09:14:28;;;;;;;25.30;21.77;;;14.20;91.40;;;;;;5128686;28;20450;-68
2022/04/26 09:17:04;;;;;;;24.10;21.60;;;14.20;90.80;;;;;;5129680;28;20427;-68
2022/04/26 09:19:44;;;;;;;25.17;22.57;;;14.10;91.20;;;;;;5128682;28;20431;-68
2022/04/26 09:22:17;;;;;;;25.67;22.97;;;14.10;91.40;;;;;;5128719;28;20857;-68
2022/04/26 09:24:58;;;;;;;28.87;25.87;;;14.10;91.40;;;;;;5128698;28;20492;-68
2022/04/26 09:27:27;;;;;;;27.90;22.93;;;14.10;91.70;;;;;;5129299;28;20467;-68
2022/04/26 09:29:53;;;;;;;26.10;23.47;;;14.20;91.50;;;;;;5129287;28;20500;-68
2022/04/26 09:32:20;;;;;;;37.27;30.83;;;14.20;91.30;;;;;;5130374;28;20478;-68
2022/04/26 09:34:47;;;;;;;30.30;27.20;;;14.40;91.40;;;;;;5130050;28;20462;-68
2022/04/26 09:37:14;;;;;;;31.40;28.00;;;14.50;91.10;;;;;;5128951;28;20447;-68
2022/04/26 09:39:41;;;;;;;27.80;24.80;;;14.60;90.90;;;;;;5127693;28;20465;-68
2022/04/26 09:42:09;;;;;;;29.03;25.93;;;14.70;91.00;;;;;;5128450;28;20558;-68
2022/04/26 09:44:41;;;;;;;29.07;26.17;;;14.80;90.70;;;;;;5128599;28;21018;-68
2022/04/26 09:47:07;;;;;;;27.60;24.77;;;14.90;90.20;;;;;;5129488;28;20459;-70
2022/04/26 09:49:38;;;;;;;25.37;22.87;;;15.00;90.40;;;;;;5128897;28;20472;-68
2022/04/26 09:52:08;;;;;;;26.10;23.13;;;15.20;90.20;;;;;;5119154;28;20491;-69
2022/04/26 09:54:37;;;;;;;29.10;24.40;;;15.40;89.60;;;;;;5108844;28;20458;-68
2022/04/26 09:57:06;;;;;;;27.33;24.73;;;15.50;87.80;;;;;;5109240;28;20440;-68
2022/04/26 09:59:39;;;;;;;23.63;21.10;;;15.50;88.20;;;;;;5109760;28;20455;-68
2022/04/26 10:02:08;;;;;;;23.60;21.20;;;15.40;87.50;;;;;;5108199;28;20528;-68
2022/04/26 10:04:38;;;;;;;23.30;20.90;;;15.40;87.30;;;;;;5107737;28;20444;-68
2022/04/26 10:07:07;;;;;;;21.93;19.70;;;15.50;87.80;;;;;;5108520;28;20846;-68
2022/04/26 10:09:34;;;;;;;28.70;22.37;;;15.60;87.90;;;;;;5108516;28;20440;-69
2022/04/26 10:12:02;;;;;;;22.13;18.47;;;15.70;87.20;;;;;;5107835;28;20468;-68
2022/04/26 10:14:30;;;;;;;22.40;20.27;;;15.80;86.50;;;;;;5108931;28;20450;-68
2022/04/26 10:17:00;;;;;;;30.43;21.77;;;15.90;86.30;;;;;;5109390;28;20466;-69
2022/04/26 10:19:38;;;;;;;23.87;21.33;;;16.10;86.00;;;;;;5109036;28;20468;-69
2022/04/26 10:22:08;;;;;;;29.87;24.80;;;16.20;85.40;;;;;;5108559;28;20474;-70
2022/04/26 10:24:36;;;;;;;29.60;26.60;;;16.10;84.70;;;;;;5109359;28;20444;-69
2022/04/26 10:27:19;;;;;;;27.90;25.17;;;16.10;84.90;;;;;;5111136;28;20501;-69
2022/04/26 10:29:47;;;;;;;26.80;23.93;;;16.20;84.50;;;;;;5112088;28;20447;-70
2022/04/26 10:32:29;;;;;;;29.17;22.80;;;16.20;84.30;;;;;;5113902;28;20467;-69
2022/04/26 10:34:57;;;;;;;38.47;34.47;;;16.40;84.20;;;;;;5112644;28;20436;-69
2022/04/26 10:37:33;;;;;;;25.53;22.60;;;16.50;83.20;;;;;;5113434;28;20499;-70
2022/04/26 10:40:01;;;;;;;27.37;24.40;;;16.50;82.10;;;;;;5113670;28;20458;-69
2022/04/26 10:42:30;;;;;;;28.40;25.80;;;16.60;82.10;;;;;;5112700;28;20467;-69
2022/04/26 10:45:07;;;;;;;32.67;29.67;;;16.70;81.20;;;;;;5111388;28;20519;-68
2022/04/26 10:47:36;;;;;;;28.40;25.53;;;16.70;80.70;;;;;;5111900;28;20559;-68
2022/04/26 10:50:05;;;;;;;23.70;21.40;;;16.80;80.90;;;;;;5111999;28;20435;-69
2022/04/26 10:52:50;;;;;;;23.40;21.10;;;16.80;79.70;;;;;;5111133;28;20877;-67
2022/04/26 10:55:19;;;;;;;25.33;22.63;;;16.80;79.90;;;;;;5110982;28;20438;-68
2022/04/26 10:57:52;;;;;;;26.07;23.67;;;16.90;80.00;;;;;;5110229;28;20467;-68
2022/04/26 11:00:27;;;;;;;23.60;21.13;;;17.00;80.40;;;;;;5110740;28;20442;-70
2022/04/26 11:03:01;;;;;;;23.33;21.07;;;17.20;81.00;;;;;;5109692;28;20474;-68
2022/04/26 11:05:30;;;;;;;21.60;19.37;;;17.60;79.50;;;;;;5109400;28;20435;-68
2022/04/26 11:07:57;;;;;;;19.70;17.63;;;17.90;77.90;;;;;;5110586;28;20475;-68
2022/04/26 11:10:26;;;;;;;16.60;15.20;;;18.10;74.80;;;;;;5110314;28;20443;-69
2022/04/26 11:12:55;;;;;;;20.20;18.23;;;18.20;74.20;;;;;;5111049;28;20460;-69
2022/04/26 11:15:24;;;;;;;20.97;19.13;;;18.50;74.90;;;;;;5110937;28;20452;-69
2022/04/26 11:17:52;;;;;;;15.37;13.90;;;18.60;72.00;;;;;;5110226;28;20443;-69
2022/04/26 11:20:24;;;;;;;17.30;15.80;;;18.60;70.90;;;;;;5110074;28;20448;-69
2022/04/26 11:22:52;;;;;;;14.67;13.30;;;18.60;72.20;;;;;;5110389;28;20849;-69
2022/04/26 11:28:09;;;;;;;16.53;15.03;;;18.70;71.90;;;;;;5112231;28;20502;-68
2022/04/26 11:30:37;;;;;;;16.90;15.47;;;18.70;71.70;;;;;;5119623;28;20426;-70
2022/04/26 11:33:06;;;;;;;17.23;15.37;;;18.80;70.60;;;;;;5119465;28;20432;-69
2022/04/26 11:35:35;;;;;;;16.13;14.63;;;18.70;69.70;;;;;;5110250;28;20424;-68
2022/04/26 11:38:09;;;;;;;17.93;16.43;;;18.70;69.30;;;;;;5111207;28;20444;-70
2022/04/26 11:40:38;;;;;;;24.10;22.00;;;18.80;70.40;;;;;;5111313;28;20439;-68
2022/04/26 11:43:11;;;;;;;20.77;19.07;;;19.50;69.80;;;;;;5110804;28;20491;-69
2022/04/26 11:45:39;;;;;;;23.07;20.97;;;20.50;66.70;;;;;;5111623;28;20803;-69
2022/04/26 11:48:09;;;;;;;21.50;19.57;;;21.30;61.70;;;;;;5111667;28;20479;-69
2022/04/26 11:50:37;;;;;;;18.13;16.47;;;21.70;58.20;;;;;;5111297;28;20462;-69
2022/04/26 11:53:05;;;;;;;17.53;16.03;;;22.00;57.40;;;;;;5111671;28;20957;-69
2022/04/26 11:55:34;;;;;;;18.00;16.13;;;22.40;55.40;;;;;;5110632;28;20443;-69
2022/04/26 11:58:13;;;;;;;14.53;13.23;;;22.70;55.20;;;;;;5111507;28;20450;-68
2022/04/26 12:01:02;;;;;;;15.60;14.20;;;23.00;52.70;;;;;;5112171;28;20488;-68
2022/04/26 12:03:30;;;;;;;15.07;13.67;;;23.00;52.10;;;;;;5113281;28;20436;-69
2022/04/26 12:06:00;;;;;;;14.90;13.60;;;22.50;51.30;;;;;;5113235;28;20444;-69
2022/04/26 12:08:28;;;;;;;17.70;16.30;;;22.10;52.70;;;;;;5112202;28;20436;-69
2022/04/26 12:10:56;;;;;;;15.70;14.33;;;22.00;53.60;;;;;;5112170;28;20479;-68
2022/04/26 12:13:31;;;;;;;13.77;12.53;;;22.20;53.50;;;;;;5111041;28;20515;-69
2022/04/26 12:16:14;;;;;;;12.90;11.87;;;23.00;53.00;;;;;;5110458;28;20454;-68
2022/04/26 12:18:49;;;;;;;13.77;12.27;;;24.00;50.00;;;;;;5111255;28;20450;-70
2022/04/26 12:21:17;;;;;;;15.30;13.90;;;24.30;47.80;;;;;;5110456;28;20497;-70
2022/04/26 12:23:44;;;;;;;15.00;13.40;;;24.20;47.00;;;;;;5110307;28;20447;-69
2022/04/26 12:26:11;;;;;;;13.10;12.00;;;24.10;47.40;;;;;;5109737;28;20489;-68
2022/04/26 12:28:47;;;;;;;13.60;12.30;;;24.10;47.30;;;;;;5109486;28;20447;-69
2022/04/26 12:31:21;;;;;;;13.60;12.30;;;24.10;46.90;;;;;;5109463;28;20478;-70
2022/04/26 12:33:52;;;;;;;13.23;12.13;;;23.80;46.00;;;;;;5111279;28;20436;-68
2022/04/26 12:36:20;;;;;;;13.67;12.37;;;23.50;46.70;;;;;;5110949;28;20945;-68
2022/04/26 12:38:47;;;;;;;14.80;13.50;;;23.30;48.20;;;;;;5110483;28;20446;-69
2022/04/26 12:41:15;;;;;;;15.00;13.60;;;22.90;47.70;;;;;;5110517;28;20475;-70
2022/04/26 12:43:43;;;;;;;16.47;14.67;;;22.50;48.90;;;;;;5111102;28;20949;-69
2022/04/26 12:46:10;;;;;;;14.20;12.90;;;22.90;50.40;;;;;;5111025;28;20443;-69
2022/04/26 12:51:27;;;;;;;13.83;12.63;;;24.90;44.90;;;;;;5109966;28;20531;-70
2022/04/26 12:53:55;;;;;;;13.73;12.43;;;25.40;41.60;;;;;;5109750;28;20801;-70
2022/04/26 12:56:22;;;;;;;12.97;11.83;;;25.40;42.30;;;;;;5110253;28;20440;-69
2022/04/26 12:58:50;;;;;;;14.33;12.90;;;25.80;41.50;;;;;;5109311;28;20462;-69
2022/04/26 13:01:17;;;;;;;14.30;13.03;;;25.80;40.70;;;;;;5108868;28;20495;-70
2022/04/26 13:03:46;;;;;;;12.77;11.67;;;25.60;39.50;;;;;;5109887;28;20527;-70
2022/04/26 13:06:17;;;;;;;14.13;12.77;;;25.50;41.00;;;;;;5109228;28;20448;-68
2022/04/26 13:08:46;;;;;;;13.77;12.47;;;25.80;41.10;;;;;;5109190;28;20436;-70
2022/04/26 13:11:14;;;;;;;14.90;13.80;;;26.50;37.80;;;;;;5108812;28;21032;-69
2022/04/26 13:13:42;;;;;;;13.90;12.60;;;27.60;37.90;;;;;;5108447;28;20451;-69
2022/04/26 13:16:09;;;;;;;13.20;12.10;;;28.70;36.60;;;;;;5109816;28;20487;-71
2022/04/26 13:18:36;;;;;;;17.23;15.83;;;28.70;33.00;;;;;;5109661;28;20511;-69
2022/04/26 13:21:03;;;;;;;15.37;13.77;;;27.60;34.70;;;;;;5109317;28;20471;-69
2022/04/26 13:23:32;;;;;;;24.23;22.00;;;26.60;36.00;;;;;;5107730;28;20452;-69
2022/04/26 13:26:01;;;;;;;18.53;16.93;;;25.70;38.60;;;;;;5108547;28;20919;-69
2022/04/26 13:28:28;;;;;;;14.40;13.10;;;25.00;40.50;;;;;;5108781;28;20483;-70
2022/04/26 13:30:55;;;;;;;19.30;17.40;;;24.50;41.70;;;;;;5109213;28;20470;-70
2022/04/26 13:33:21;;;;;;;17.80;16.00;;;23.70;41.20;;;;;;5109091;28;20444;-70
2022/04/26 13:35:48;;;;;;;17.87;16.03;;;22.90;43.20;;;;;;5109264;28;20435;-70
2022/04/26 13:38:19;;;;;;;21.53;19.47;;;22.30;44.10;;;;;;5109363;28;20456;-70
2022/04/26 13:40:47;;;;;;;24.57;22.47;;;21.80;45.30;;;;;;5109190;28;20440;-70
2022/04/26 13:43:16;;;;;;;22.73;20.63;;;21.30;45.90;;;;;;5109477;28;20498;-69
2022/04/26 13:45:42;;;;;;;20.37;18.37;;;20.80;47.00;;;;;;5109673;28;20451;-68
2022/04/26 13:48:11;;;;;;;28.30;25.87;;;20.20;48.10;;;;;;5104204;28;21060;-69
2022/04/26 13:50:38;;;;;;;25.10;22.77;;;19.80;49.90;;;;;;5105080;28;20476;-68
2022/04/26 13:53:05;;;;;;;21.20;19.40;;;19.50;51.50;;;;;;5106849;28;20451;-68
2022/04/26 13:55:32;;;;;;;26.50;24.30;;;19.20;52.10;;;;;;5107918;28;20444;-68
2022/04/26 13:57:59;;;;;;;19.23;17.53;;;18.90;53.20;;;;;;5107864;28;20793;-68
2022/04/26 14:00:30;;;;;;;17.43;15.70;;;18.70;53.80;;;;;;5108988;28;20467;-68
2022/04/26 14:02:57;;;;;;;21.70;19.80;;;18.60;54.80;;;;;;5110760;28;20436;-68
2022/04/26 14:05:25;;;;;;;19.33;17.57;;;18.50;55.30;;;;;;5110701;28;20427;-67
2022/04/26 14:07:52;;;;;;;25.17;23.07;;;18.40;55.20;;;;;;5106758;28;20483;-65
2022/04/26 14:10:19;;;;;;;18.80;16.90;;;18.30;56.00;;;;;;5102700;28;20448;-66
2022/04/26 14:12:45;;;;;;;18.80;16.13;;;18.20;57.30;;;;;;5102794;28;20491;-66
2022/04/26 14:23:30;;;;;;;13.83;12.37;;;17.60;62.20;;;;;;5105753;28;20449;-67
2022/04/26 14:25:57;;;;;;;13.60;12.20;;;17.60;63.40;;;;;;5105924;28;20439;-67
2022/04/26 14:28:24;;;;;;;14.30;12.90;;;17.60;63.90;;;;;;5106221;28;20474;-66
2022/04/26 14:30:51;;;;;;;14.77;13.33;;;17.60;65.10;;;;;;5107726;28;20475;-66
2022/04/26 14:33:19;;;;;;;11.67;10.77;;;17.50;63.30;;;;;;5107575;28;20452;-67
2022/04/26 14:35:46;;;;;;;12.17;11.17;;;17.60;62.70;;;;;;5108888;28;20534;-67
2022/04/26 14:38:13;;;;;;;12.60;11.40;;;17.70;62.30;;;;;;5109723;28;20475;-68
2022/04/26 14:40:40;;;;;;;13.90;10.07;;;17.80;62.20;;;;;;5109181;28;20451;-67
2022/04/26 14:43:09;;;;;;;14.07;11.40;;;17.90;62.20;;;;;;5109687;28;20463;-67
2022/04/26 14:45:42;;;;;;;11.20;10.10;;;18.00;62.00;;;;;;5110980;28;20922;-67
2022/04/26 14:48:10;;;;;;;12.30;11.10;;;18.20;62.30;;;;;;5110337;28;20879;-67
2022/04/26 14:50:39;;;;;;;14.03;10.67;;;18.30;59.60;;;;;;5108407;28;20843;-67
2022/04/26 14:53:06;;;;;;;12.60;10.17;;;18.30;59.50;;;;;;5107161;28;20450;-67
2022/04/26 14:55:32;;;;;;;12.37;11.20;;;18.40;59.70;;;;;;5105890;28;20998;-66
2022/04/26 14:57:59;;;;;;;12.57;11.43;;;18.40;59.20;;;;;;5106606;28;20423;-67
2022/04/26 15:00:26;;;;;;;12.33;11.33;;;18.40;59.20;;;;;;5106721;28;20432;-66
2022/04/26 15:02:53;;;;;;;10.60;9.50;;;18.40;58.90;;;;;;5105799;28;20987;-66
2022/04/26 15:05:19;;;;;;;10.77;9.77;;;18.70;59.90;;;;;;5106583;28;20424;-66
2022/04/26 15:10:32;;;;;;;8.60;7.80;;;21.10;58.50;;;;;;5106496;28;20416;-66
2022/04/26 15:18:27;;;;;;;8.00;7.30;;;24.10;43.40;;;;;;5110889;28;20446;-67
2022/04/26 15:20:54;;;;;;;10.63;7.90;;;24.30;41.90;;;;;;5109953;28;20471;-68
2022/04/26 15:23:23;;;;;;;7.00;6.40;;;24.70;43.10;;;;;;5110190;28;20442;-68
2022/04/26 15:25:50;;;;;;;7.40;6.80;;;25.50;41.20;;;;;;5110519;28;20425;-70
2022/04/26 15:28:19;;;;;;;7.17;6.43;;;26.30;38.10;;;;;;5111959;28;20464;-70
2022/04/26 15:30:45;;;;;;;8.57;7.10;;;27.10;37.70;;;;;;5107286;28;20915;-68
2022/04/26 15:33:12;;;;;;;8.90;6.90;;;27.70;35.20;;;;;;5109291;28;20451;-68
2022/04/26 15:35:39;;;;;;;9.90;6.63;;;28.20;34.40;;;;;;5112512;28;20776;-67
2022/04/26 15:38:07;;;;;;;6.77;6.17;;;28.70;32.20;;;;;;5116270;28;20450;-69
2022/04/26 15:40:35;;;;;;;7.50;5.93;;;29.10;31.90;;;;;;5110499;28;20468;-68
2022/04/26 15:43:05;;;;;;;7.40;5.87;;;29.30;31.00;;;;;;5109360;28;20458;-68
2022/04/26 15:45:32;;;;;;;10.43;6.60;;;28.90;30.00;;;;;;5108740;28;20439;-68
2022/04/26 15:48:00;;;;;;;6.90;6.13;;;28.20;31.30;;;;;;5112528;28;20490;-69
2022/04/26 15:53:49;;;;;;;7.37;6.70;;;26.40;34.50;;;;;;5109024;28;20379;-67
2022/04/26 15:56:17;;;;;;;6.73;5.80;;;25.30;36.00;;;;;;5109528;28;20457;-67
2022/04/26 15:58:44;;;;;;;7.67;6.57;;;24.60;37.60;;;;;;5108844;28;20428;-67
2022/04/26 16:01:11;;;;;;;7.57;6.97;;;23.90;39.00;;;;;;5106619;28;20472;-68
2022/04/26 16:03:41;;;;;;;6.83;6.20;;;23.40;40.30;;;;;;5107881;28;20444;-67
2022/04/26 16:06:07;;;;;;;7.00;6.30;;;22.90;41.00;;;;;;5106952;28;20428;-67
2022/04/26 16:08:35;;;;;;;9.60;6.50;;;22.50;42.00;;;;;;5105923;28;20484;-68
2022/04/26 16:22:16;;;;;;;6.07;5.47;;;23.80;40.10;;;;;;5106453;28;20443;-68
2022/04/26 16:24:42;;;;;;;6.77;5.10;;;24.10;40.30;;;;;;5105552;28;20448;-68
2022/04/26 16:27:09;;;;;;;9.50;6.40;;;24.30;40.00;;;;;;5112750;28;20455;-68
2022/04/26 16:29:37;;;;;;;10.40;6.20;;;24.20;39.10;;;;;;5110734;28;20471;-67
2022/04/26 16:32:04;;;;;;;6.20;5.57;;;24.30;39.00;;;;;;5105268;28;20490;-69
2022/04/26 16:34:31;;;;;;;6.30;5.50;;;24.30;38.30;;;;;;5105342;28;20440;-68
2022/04/26 16:40:20;;;;;;;8.30;5.27;;;24.50;38.50;;;;;;5105951;28;20398;-68
2022/04/26 16:42:47;;;;;;;7.47;5.80;;;24.50;37.30;;;;;;5106769;28;20474;-68
2022/04/26 16:45:15;;;;;;;8.43;5.90;;;24.50;38.60;;;;;;5105219;28;20424;-67
2022/04/26 16:47:43;;;;;;;8.10;5.70;;;24.50;39.00;;;;;;5104048;28;20471;-67
2022/04/26 16:50:12;;;;;;;5.83;5.23;;;24.50;38.90;;;;;;5104765;28;20443;-67
2022/04/26 16:52:39;;;;;;;6.80;6.10;;;24.40;38.60;;;;;;5105038;28;20472;-68
2022/04/26 16:55:07;;;;;;;6.17;5.57;;;24.10;38.30;;;;;;5106195;28;20435;-68
2022/04/26 16:57:33;;;;;;;12.00;6.20;;;23.60;38.50;;;;;;5105386;28;20444;-68
2022/04/26 17:00:00;;;;;;;7.53;6.00;;;23.20;39.90;;;;;;5103035;28;20452;-66
2022/04/26 17:02:30;;;;;;;6.77;5.40;;;23.00;40.90;;;;;;5101524;28;20833;-67